Time;durP1;ratioP1;P1;durP2;ratioP2;P2;SDS_P1;SDS_P2;PMS_P1;PMS_P2;Temp;Humidity;BMP_temperature;BMP_pressure;BME280_temperature;BME280_humidity;BME280_pressure;Samples;Min_cycle;Max_cycle;Signal;HPM_P1;HPM_P2
2022/03/09 10:11:25;;;;;;;20.93;19.13;;;12.80;53.30;;;;;;5087148;27;21035;-73
2022/03/09 10:13:52;;;;;;;19.07;17.57;;;13.90;50.30;;;;;;5087531;28;20439;-73
2022/03/09 10:16:20;;;;;;;22.63;20.40;;;14.50;49.20;;;;;;5087517;28;20454;-73
2022/03/09 10:18:49;;;;;;;20.60;19.10;;;14.80;47.60;;;;;;5087444;28;20926;-73
2022/03/09 10:21:18;;;;;;;20.40;18.70;;;14.30;47.40;;;;;;5087113;28;20454;-73
2022/03/09 10:23:53;;;;;;;21.07;19.47;;;14.60;48.30;;;;;;5087175;28;20454;-73
2022/03/09 10:26:20;;;;;;;20.13;18.73;;;15.30;45.40;;;;;;5087316;28;20861;-72
2022/03/09 10:28:59;;;;;;;21.67;20.07;;;15.50;45.10;;;;;;5087012;28;20452;-72
2022/03/09 10:31:36;;;;;;;21.20;19.70;;;16.40;44.20;;;;;;5087346;28;20473;-72
2022/03/09 10:34:08;;;;;;;20.07;18.57;;;17.20;42.60;;;;;;5087252;28;20869;-73
2022/03/09 10:36:35;;;;;;;20.23;18.80;;;16.40;41.40;;;;;;5087153;28;20454;-73
2022/03/09 10:39:12;;;;;;;21.30;19.63;;;15.70;41.90;;;;;;5087130;28;20443;-73
2022/03/09 10:41:39;;;;;;;21.83;20.10;;;15.80;42.90;;;;;;5087114;28;20484;-73
2022/03/09 10:44:07;;;;;;;22.97;20.80;;;15.70;42.20;;;;;;5087204;28;20454;-72
2022/03/09 10:46:46;;;;;;;22.23;20.63;;;15.50;41.20;;;;;;5087162;28;20510;-73
2022/03/09 10:49:13;;;;;;;20.10;18.60;;;15.80;41.50;;;;;;5087019;28;20886;-73
2022/03/09 10:51:43;;;;;;;20.73;19.20;;;16.00;41.20;;;;;;5087007;28;20461;-73
2022/03/09 10:54:12;;;;;;;22.83;21.00;;;15.60;41.10;;;;;;5086806;28;20452;-73
2022/03/09 10:56:39;;;;;;;23.50;21.80;;;15.90;40.80;;;;;;5086965;28;20463;-73
2022/03/09 10:59:12;;;;;;;23.13;21.53;;;16.20;40.30;;;;;;5086982;28;20551;-73
2022/03/09 11:01:39;;;;;;;22.80;21.10;;;17.60;39.40;;;;;;5086683;28;20474;-73
2022/03/09 11:04:17;;;;;;;23.47;21.63;;;19.00;38.00;;;;;;5086814;28;20450;-74
2022/03/09 11:06:47;;;;;;;24.40;22.60;;;20.10;36.00;;;;;;5086479;28;20583;-73
2022/03/09 11:09:15;;;;;;;25.30;23.40;;;20.30;34.00;;;;;;5086267;28;20494;-74
2022/03/09 11:11:43;;;;;;;24.70;22.70;;;20.10;33.50;;;;;;5076530;28;20574;-74
2022/03/09 11:14:13;;;;;;;23.57;21.77;;;19.60;33.30;;;;;;5072959;28;20461;-73
2022/03/09 11:16:41;;;;;;;25.87;23.77;;;19.80;33.40;;;;;;5072803;28;21010;-73
2022/03/09 11:19:08;;;;;;;25.50;23.50;;;20.20;33.10;;;;;;5072813;28;20558;-73
2022/03/09 11:21:36;;;;;;;28.33;25.80;;;20.30;32.10;;;;;;5073096;28;21014;-74
2022/03/09 11:24:06;;;;;;;25.60;23.60;;;20.50;32.50;;;;;;5072404;28;20444;-72
2022/03/09 11:26:36;;;;;;;26.37;24.17;;;21.20;31.50;;;;;;5072420;28;20462;-73
2022/03/09 11:29:05;;;;;;;29.17;26.87;;;21.40;30.80;;;;;;5072364;28;20470;-73
2022/03/09 11:31:48;;;;;;;28.53;26.27;;;22.10;30.10;;;;;;5072280;28;20458;-72
2022/03/09 11:34:36;;;;;;;26.17;24.03;;;22.00;30.10;;;;;;5072449;28;20469;-73
2022/03/09 11:37:05;;;;;;;28.00;26.00;;;22.80;29.90;;;;;;5072477;28;20854;-73
2022/03/09 11:39:32;;;;;;;26.60;24.67;;;22.90;28.70;;;;;;5072378;28;20943;-73
2022/03/09 11:42:33;;;;;;;27.07;25.07;;;22.60;28.80;;;;;;5072263;28;20469;-72
2022/03/09 11:45:40;;;;;;;26.80;24.83;;;23.90;28.50;;;;;;5072933;28;20459;-72
2022/03/09 11:48:14;;;;;;;27.73;25.63;;;23.50;27.50;;;;;;5072855;28;20458;-73
2022/03/09 11:51:13;;;;;;;28.23;25.57;;;22.80;27.70;;;;;;5072273;28;20612;-73
2022/03/09 11:53:43;;;;;;;27.27;25.17;;;21.50;28.70;;;;;;5072375;28;20456;-74
2022/03/09 11:56:35;;;;;;;27.07;25.00;;;22.00;28.80;;;;;;5072499;28;20447;-73
2022/03/09 11:59:17;;;;;;;24.43;22.63;;;22.50;28.70;;;;;;5072034;28;20462;-73
2022/03/09 12:02:23;;;;;;;27.13;25.13;;;22.10;28.20;;;;;;5071962;28;20876;-73
2022/03/09 12:04:53;;;;;;;27.03;24.70;;;21.80;28.70;;;;;;5072097;28;20443;-74
2022/03/09 12:07:56;;;;;;;26.80;24.77;;;22.10;28.40;;;;;;5072063;28;20504;-73
2022/03/09 12:10:41;;;;;;;27.97;25.60;;;21.50;27.90;;;;;;5071891;28;20498;-73
2022/03/09 12:13:14;;;;;;;27.37;24.90;;;20.30;29.20;;;;;;5072079;28;20452;-74
2022/03/09 12:16:15;;;;;;;28.17;26.07;;;20.90;29.50;;;;;;5071749;28;20459;-73
2022/03/09 12:18:45;;;;;;;27.43;25.23;;;21.10;29.10;;;;;;5071852;28;20448;-73
2022/03/09 12:21:14;;;;;;;26.60;24.30;;;20.60;29.80;;;;;;5071578;28;20456;-74
2022/03/09 12:24:29;;;;;;;26.43;24.23;;;21.40;29.40;;;;;;5070562;28;20802;-75
2022/03/09 12:26:56;;;;;;;27.47;25.27;;;20.30;29.50;;;;;;5071683;28;20476;-74
2022/03/09 12:29:39;;;;;;;26.50;24.10;;;20.80;29.60;;;;;;5071567;28;20454;-74
2022/03/09 12:32:08;;;;;;;27.17;24.90;;;20.70;29.50;;;;;;5071659;28;20455;-74
2022/03/09 12:34:37;;;;;;;29.97;27.20;;;20.80;29.40;;;;;;5071363;28;20466;-74
2022/03/09 12:37:07;;;;;;;26.47;24.27;;;20.90;29.30;;;;;;5071554;28;20965;-74
2022/03/09 12:39:34;;;;;;;27.03;24.70;;;20.80;29.40;;;;;;5071404;28;20497;-74
2022/03/09 12:42:02;;;;;;;26.43;24.40;;;21.40;29.70;;;;;;5071146;28;20921;-75
2022/03/09 12:44:30;;;;;;;27.27;24.97;;;21.20;29.20;;;;;;5071043;28;20820;-74
2022/03/09 12:47:01;;;;;;;26.67;24.70;;;21.90;29.40;;;;;;5071077;28;20505;-74
2022/03/09 12:49:36;;;;;;;29.77;27.43;;;22.70;28.90;;;;;;5071057;28;20858;-75
2022/03/09 12:52:08;;;;;;;30.13;27.40;;;24.00;28.20;;;;;;5071018;28;20790;-75
2022/03/09 12:54:40;;;;;;;27.53;25.47;;;24.50;27.70;;;;;;5071216;28;20459;-74
2022/03/09 12:57:16;;;;;;;28.27;26.07;;;25.30;27.00;;;;;;5071999;28;20562;-74
2022/03/09 13:00:02;;;;;;;28.83;26.60;;;24.90;26.70;;;;;;5070851;28;20449;-74
2022/03/09 13:02:43;;;;;;;27.63;25.60;;;25.40;26.90;;;;;;5070642;28;20472;-72
2022/03/09 13:05:11;;;;;;;27.80;25.70;;;25.10;26.60;;;;;;5070954;28;20813;-74
2022/03/09 13:07:39;;;;;;;28.23;26.07;;;24.50;26.70;;;;;;5071133;28;20477;-72
2022/03/09 13:10:08;;;;;;;27.30;25.20;;;23.70;26.80;;;;;;5070642;28;20498;-74
2022/03/09 13:12:36;;;;;;;29.10;27.00;;;23.80;27.10;;;;;;5070750;28;20976;-74
2022/03/09 13:15:04;;;;;;;28.77;26.53;;;23.50;27.00;;;;;;5070588;28;20820;-74
2022/03/09 13:17:31;;;;;;;28.30;26.30;;;23.40;27.20;;;;;;5070691;28;20835;-74
2022/03/09 13:19:58;;;;;;;26.00;24.10;;;23.00;27.80;;;;;;5070390;28;20524;-73
2022/03/09 13:22:25;;;;;;;28.00;25.60;;;22.20;27.90;;;;;;5070550;28;20459;-74
2022/03/09 13:25:04;;;;;;;28.27;26.07;;;21.80;28.20;;;;;;5070683;28;20443;-74
2022/03/09 13:27:31;;;;;;;28.83;26.70;;;22.10;27.80;;;;;;5070379;28;20906;-74
2022/03/09 13:29:58;;;;;;;27.87;25.80;;;22.30;27.70;;;;;;5070382;28;20529;-74
2022/03/09 13:32:29;;;;;;;28.10;25.87;;;22.20;27.80;;;;;;5070334;28;20908;-74
2022/03/09 13:34:57;;;;;;;28.10;25.90;;;22.50;27.80;;;;;;5069913;28;20505;-74
2022/03/09 13:37:36;;;;;;;27.20;25.10;;;21.70;27.60;;;;;;5070599;28;20822;-74
2022/03/09 13:40:07;;;;;;;27.27;24.80;;;21.40;28.20;;;;;;5070399;28;20989;-74
2022/03/09 13:42:36;;;;;;;26.23;24.20;;;22.20;28.20;;;;;;5070135;28;20920;-75
2022/03/09 13:45:06;;;;;;;27.20;24.93;;;22.10;27.90;;;;;;5070248;28;20535;-74
2022/03/09 13:47:45;;;;;;;30.47;27.83;;;21.50;27.90;;;;;;5069985;28;20451;-74
2022/03/09 13:50:18;;;;;;;28.30;25.90;;;21.10;28.10;;;;;;5070102;28;20577;-74
2022/03/09 13:52:45;;;;;;;28.67;26.37;;;20.60;28.40;;;;;;5070155;28;20853;-74
2022/03/09 13:55:23;;;;;;;28.03;25.60;;;19.90;28.50;;;;;;5070095;28;20482;-74
2022/03/09 13:58:06;;;;;;;26.37;24.13;;;18.60;29.50;;;;;;5070292;28;20442;-74
2022/03/09 14:00:36;;;;;;;26.60;24.40;;;16.70;30.80;;;;;;5069937;28;20446;-74
2022/03/09 14:03:14;;;;;;;26.93;24.23;;;15.90;31.90;;;;;;5070202;28;20445;-74
2022/03/09 14:05:43;;;;;;;27.70;24.83;;;15.00;32.80;;;;;;5069966;28;20470;-74
2022/03/09 14:08:11;;;;;;;25.57;23.30;;;14.50;33.50;;;;;;5070025;28;20477;-74
2022/03/09 14:10:40;;;;;;;26.53;23.87;;;14.00;34.30;;;;;;5069862;28;20875;-74
2022/03/09 14:13:10;;;;;;;24.83;22.63;;;13.60;34.80;;;;;;5069983;28;20502;-74
2022/03/09 14:15:37;;;;;;;24.20;22.00;;;13.50;35.50;;;;;;5069957;28;20447;-75
2022/03/09 14:18:04;;;;;;;27.57;24.57;;;13.50;35.70;;;;;;5069671;28;20877;-73
2022/03/09 14:20:30;;;;;;;26.30;22.40;;;13.40;35.80;;;;;;5069914;28;20501;-74
2022/03/09 14:22:57;;;;;;;24.60;22.30;;;13.40;36.50;;;;;;5069911;28;20481;-75
2022/03/09 14:25:24;;;;;;;26.07;23.60;;;13.30;35.90;;;;;;5070076;28;20886;-74
2022/03/09 14:27:54;;;;;;;26.37;23.77;;;13.30;36.00;;;;;;5069824;28;20448;-74
2022/03/09 14:30:22;;;;;;;24.80;22.43;;;13.30;36.10;;;;;;5069925;28;20493;-74
2022/03/09 14:32:50;;;;;;;26.10;23.60;;;13.20;36.30;;;;;;5069748;28;20538;-75
2022/03/09 14:35:17;;;;;;;24.90;22.70;;;13.30;36.50;;;;;;5069640;28;20447;-75
2022/03/09 14:37:46;;;;;;;25.60;23.00;;;13.20;36.10;;;;;;5069793;28;20443;-75
2022/03/09 14:40:14;;;;;;;28.03;22.30;;;13.10;36.30;;;;;;5069814;28;20512;-75
2022/03/09 14:42:40;;;;;;;24.10;21.77;;;13.10;36.40;;;;;;5069890;28;20450;-75
2022/03/09 14:45:12;;;;;;;24.47;21.90;;;13.00;36.10;;;;;;5069863;28;20448;-75
2022/03/09 14:47:38;;;;;;;24.30;22.00;;;13.00;36.00;;;;;;5073321;28;20497;-74
2022/03/09 14:50:06;;;;;;;22.20;20.10;;;13.00;36.10;;;;;;5073523;28;20505;-75
2022/03/09 14:52:34;;;;;;;22.97;20.80;;;13.00;36.20;;;;;;5073522;28;20820;-74
2022/03/09 14:55:00;;;;;;;21.90;19.87;;;13.00;35.50;;;;;;5073446;28;20464;-75
2022/03/09 14:57:27;;;;;;;23.63;21.33;;;13.00;35.40;;;;;;5073369;28;20455;-74
2022/03/09 14:59:54;;;;;;;22.43;20.33;;;13.00;34.70;;;;;;5073520;28;20850;-75
2022/03/09 15:02:22;;;;;;;23.17;21.00;;;13.00;35.50;;;;;;5073461;28;20495;-74
2022/03/09 15:04:48;;;;;;;22.57;20.30;;;13.00;35.50;;;;;;5073445;28;20481;-75
2022/03/09 15:07:15;;;;;;;24.17;21.70;;;13.10;36.10;;;;;;5073816;28;21004;-74
2022/03/09 15:09:42;;;;;;;23.90;21.50;;;13.10;36.30;;;;;;5077506;28;20506;-74
2022/03/09 15:12:09;;;;;;;24.00;21.83;;;13.10;36.10;;;;;;5082002;28;20483;-74
2022/03/09 15:14:36;;;;;;;22.67;20.57;;;13.10;35.80;;;;;;5083763;28;20447;-73
2022/03/09 15:17:03;;;;;;;24.43;22.07;;;13.00;35.80;;;;;;5080224;28;20447;-74
2022/03/09 15:19:36;;;;;;;25.97;23.47;;;13.00;36.10;;;;;;5076640;28;20455;-73
2022/03/09 15:22:03;;;;;;;25.50;23.10;;;13.00;36.10;;;;;;5072855;28;20954;-73
2022/03/09 15:24:30;;;;;;;26.23;23.53;;;13.00;36.20;;;;;;5072838;28;20444;-73
2022/03/09 15:26:56;;;;;;;24.00;21.70;;;13.00;36.20;;;;;;5072541;28;20499;-74
2022/03/09 15:29:23;;;;;;;25.90;23.43;;;12.90;36.80;;;;;;5072874;28;20505;-73
2022/03/09 15:31:50;;;;;;;24.80;22.27;;;12.80;36.80;;;;;;5072461;28;20484;-74
2022/03/09 15:34:17;;;;;;;26.20;23.90;;;12.90;36.80;;;;;;5072486;28;20455;-74
2022/03/09 15:36:45;;;;;;;25.93;23.60;;;12.90;36.60;;;;;;5072570;28;20509;-74
2022/03/09 15:39:12;;;;;;;26.40;23.90;;;12.90;36.20;;;;;;5072378;28;20493;-74
2022/03/09 15:41:38;;;;;;;26.17;23.63;;;12.80;36.20;;;;;;5072620;28;20517;-74
2022/03/09 15:44:05;;;;;;;24.80;22.60;;;12.80;36.40;;;;;;5072556;28;20451;-74
2022/03/09 15:46:34;;;;;;;24.47;22.30;;;12.70;36.70;;;;;;5072200;28;20455;-73
2022/03/09 15:49:02;;;;;;;24.20;21.80;;;12.70;36.60;;;;;;5072219;28;20447;-74
2022/03/09 15:51:29;;;;;;;24.13;21.83;;;12.70;36.60;;;;;;5072308;28;20738;-74
2022/03/09 15:53:57;;;;;;;22.93;21.00;;;12.70;36.40;;;;;;5072260;28;20487;-74
2022/03/09 15:56:25;;;;;;;24.20;22.20;;;12.60;36.30;;;;;;5072299;28;20458;-74
2022/03/09 15:58:52;;;;;;;25.50;23.00;;;12.50;36.60;;;;;;5072179;28;20465;-74
2022/03/09 16:01:18;;;;;;;22.47;20.17;;;12.40;37.00;;;;;;5072120;28;20470;-73
2022/03/09 16:03:45;;;;;;;22.83;20.73;;;12.40;37.00;;;;;;5072045;28;20455;-74
2022/03/09 16:06:12;;;;;;;24.13;21.83;;;12.40;37.10;;;;;;5071915;28;20477;-74
2022/03/09 16:08:39;;;;;;;22.57;20.37;;;12.40;36.10;;;;;;5071995;28;20463;-74
2022/03/09 16:11:07;;;;;;;22.93;20.73;;;12.30;37.10;;;;;;5071765;28;20495;-74
2022/03/09 16:13:34;;;;;;;22.73;20.63;;;12.30;36.40;;;;;;5071970;28;20451;-74
2022/03/09 16:16:01;;;;;;;23.20;20.90;;;12.30;36.40;;;;;;5071688;28;20452;-75
2022/03/09 16:18:28;;;;;;;25.93;23.13;;;12.20;36.80;;;;;;5071657;28;20995;-75
2022/03/09 16:20:55;;;;;;;25.60;23.30;;;12.00;36.70;;;;;;5071960;28;20527;-74
2022/03/09 16:23:21;;;;;;;25.50;23.10;;;11.90;37.30;;;;;;5071841;28;20482;-74
2022/03/09 16:25:48;;;;;;;23.63;21.37;;;11.90;37.50;;;;;;5071584;28;20501;-75
2022/03/09 16:28:16;;;;;;;24.33;22.13;;;11.80;37.90;;;;;;5071533;28;20455;-73
2022/03/09 16:30:43;;;;;;;23.90;21.80;;;11.80;37.90;;;;;;5071373;28;20481;-73
2022/03/09 16:33:09;;;;;;;25.60;23.40;;;11.80;37.50;;;;;;5071367;28;20547;-73
2022/03/09 16:35:36;;;;;;;23.73;21.63;;;11.80;37.70;;;;;;5071010;28;20871;-75
2022/03/09 16:38:03;;;;;;;23.00;21.00;;;11.80;37.70;;;;;;5070953;28;20447;-75
2022/03/09 16:40:30;;;;;;;24.03;21.73;;;11.70;37.70;;;;;;5071110;28;21177;-75
2022/03/09 16:42:57;;;;;;;23.60;21.33;;;11.70;38.10;;;;;;5071189;28;20505;-75
2022/03/09 16:45:28;;;;;;;25.80;23.60;;;11.60;37.70;;;;;;5071297;28;20458;-75
2022/03/09 16:47:55;;;;;;;24.93;22.70;;;11.50;37.90;;;;;;5071166;28;20455;-74
2022/03/09 16:50:22;;;;;;;24.27;21.97;;;11.40;38.00;;;;;;5071202;28;20823;-75
2022/03/09 16:52:48;;;;;;;24.37;22.27;;;11.40;38.40;;;;;;5070928;28;20582;-75
2022/03/09 16:55:15;;;;;;;27.10;24.43;;;11.20;38.90;;;;;;5070930;28;20443;-74
2022/03/09 16:57:43;;;;;;;24.73;22.10;;;11.10;38.60;;;;;;5070560;28;20448;-75
2022/03/09 17:00:16;;;;;;;22.70;20.40;;;11.00;39.00;;;;;;5070787;28;20507;-74
2022/03/09 17:02:44;;;;;;;24.83;22.60;;;10.90;39.20;;;;;;5070730;28;20923;-75
2022/03/09 17:05:11;;;;;;;23.60;21.20;;;10.60;39.20;;;;;;5070958;28;20496;-75
2022/03/09 17:07:37;;;;;;;23.30;19.70;;;10.50;39.70;;;;;;5070976;28;20451;-75
2022/03/09 17:10:05;;;;;;;23.87;20.10;;;10.40;40.40;;;;;;5070020;28;20492;-74
2022/03/09 17:12:33;;;;;;;24.00;21.53;;;10.20;40.70;;;;;;5070906;28;20491;-74
2022/03/09 17:15:00;;;;;;;23.47;21.17;;;10.10;41.20;;;;;;5070461;28;20509;-74
2022/03/09 17:17:27;;;;;;;23.63;20.40;;;9.90;42.50;;;;;;5070602;28;20451;-74
2022/03/09 17:19:55;;;;;;;22.77;20.57;;;9.70;43.20;;;;;;5070775;28;20505;-74
2022/03/09 17:22:22;;;;;;;29.67;22.03;;;9.50;43.70;;;;;;5070665;28;20513;-74
2022/03/09 17:24:49;;;;;;;22.70;20.60;;;9.30;44.40;;;;;;5070520;28;20550;-74
2022/03/09 17:27:16;;;;;;;24.30;20.60;;;9.00;45.20;;;;;;5070322;28;20478;-74
2022/03/09 17:29:43;;;;;;;22.37;20.03;;;8.80;45.60;;;;;;5070448;28;20447;-75
2022/03/09 17:32:10;;;;;;;22.33;19.97;;;8.60;46.40;;;;;;5070321;28;21020;-74
2022/03/09 17:34:37;;;;;;;22.43;20.00;;;8.40;47.20;;;;;;5070459;28;20930;-75
2022/03/09 17:37:05;;;;;;;26.80;20.57;;;8.30;47.90;;;;;;5070655;28;20448;-75
2022/03/09 17:39:32;;;;;;;23.17;20.87;;;8.10;48.40;;;;;;5070419;28;20455;-75
2022/03/09 17:41:59;;;;;;;24.20;21.70;;;8.10;48.30;;;;;;5070256;28;21032;-75
2022/03/09 17:44:26;;;;;;;24.43;21.37;;;8.10;48.20;;;;;;5070411;28;20797;-74
2022/03/09 17:46:52;;;;;;;29.37;22.80;;;8.10;48.70;;;;;;5070299;28;20455;-75
2022/03/09 17:49:20;;;;;;;24.63;22.10;;;8.00;49.00;;;;;;5070311;28;20454;-74
2022/03/09 17:51:46;;;;;;;24.23;21.70;;;7.90;49.60;;;;;;5070278;28;20590;-74
2022/03/09 17:54:14;;;;;;;24.80;22.10;;;7.70;49.80;;;;;;5070293;28;20508;-74
2022/03/09 17:56:41;;;;;;;26.37;23.40;;;7.60;50.70;;;;;;5070330;28;20452;-74
